Time;durP1;ratioP1;P1;durP2;ratioP2;P2;SDS_P1;SDS_P2;PMS_P1;PMS_P2;Temp;Humidity;BMP_temperature;BMP_pressure;BME280_temperature;BME280_humidity;BME280_pressure;Samples;Min_cycle;Max_cycle;Signal;HPM_P1;HPM_P2
2023/06/17 00:00:10;;;;;;;5.03;4.40;;;;;;;17.21;51.04;101446.19;5047255;28;20046;-70
2023/06/17 00:02:36;;;;;;;4.88;4.10;;;;;;;17.22;50.45;101461.34;5041744;28;20036;-71
2023/06/17 00:05:02;;;;;;;6.45;4.50;;;;;;;17.26;50.84;101449.41;5047885;28;20502;-71
2023/06/17 00:07:28;;;;;;;5.30;4.80;;;;;;;17.18;50.66;101450.81;5048928;28;20508;-71
2023/06/17 00:09:53;;;;;;;5.65;4.68;;;;;;;17.26;50.58;101454.78;5031713;28;20163;-71
2023/06/17 00:12:18;;;;;;;7.78;4.80;;;;;;;17.22;49.98;101454.13;5048655;28;20024;-71
2023/06/17 00:14:46;;;;;;;5.60;5.00;;;;;;;17.21;49.97;101452.41;5047253;28;20035;-71
2023/06/17 00:17:12;;;;;;;5.53;5.03;;;;;;;17.24;49.30;101446.84;5048790;28;20025;-71
2023/06/17 00:19:38;;;;;;;6.15;4.60;;;;;;;17.12;49.16;101445.00;5045854;28;20051;-70
2023/06/17 00:22:04;;;;;;;5.63;5.00;;;;;;;17.08;50.40;101443.47;5037516;28;20040;-70
2023/06/17 00:24:30;;;;;;;6.50;4.85;;;;;;;17.07;50.49;101441.75;5046193;28;20029;-70
2023/06/17 00:26:55;;;;;;;6.15;5.55;;;;;;;16.92;49.96;101436.44;5031446;28;20025;-71
2023/06/17 00:29:21;;;;;;;5.40;4.90;;;;;;;16.98;50.48;101426.25;5049524;28;20407;-71
2023/06/17 00:31:46;;;;;;;6.43;5.03;;;;;;;16.88;51.08;101431.38;5048493;28;20534;-70
2023/06/17 00:34:11;;;;;;;5.32;4.82;;;;;;;16.88;50.88;101432.25;5048563;28;20041;-70
2023/06/17 00:36:37;;;;;;;7.97;5.38;;;;;;;16.89;51.19;101438.50;5025940;28;20017;-70
2023/06/17 00:39:02;;;;;;;6.03;4.93;;;;;;;16.92;50.43;101438.28;5047709;28;20029;-70
2023/06/17 00:41:27;;;;;;;5.90;4.65;;;;;;;16.89;50.69;101427.75;5046624;28;20034;-70
2023/06/17 00:43:53;;;;;;;6.85;5.15;;;;;;;16.91;51.21;101436.56;5048441;28;20106;-70
2023/06/17 00:46:18;;;;;;;5.82;5.18;;;;;;;16.76;51.18;101435.78;5047205;28;20025;-69
2023/06/17 00:48:43;;;;;;;6.00;5.07;;;;;;;16.69;52.06;101429.91;5046981;28;20461;-69
2023/06/17 00:51:09;;;;;;;8.27;5.25;;;;;;;16.68;50.94;101428.22;5047191;28;20127;-70
2023/06/17 00:53:34;;;;;;;7.80;4.85;;;;;;;16.71;51.11;101429.81;5043540;28;20082;-70
2023/06/17 00:56:00;;;;;;;4.70;4.25;;;;;;;16.66;52.52;101431.94;5045438;28;20495;-70
2023/06/17 00:58:30;;;;;;;5.75;4.78;;;;;;;16.59;52.38;101438.69;5043961;28;20068;-69
2023/06/17 01:00:55;;;;;;;6.28;5.15;;;;;;;16.43;52.83;101439.72;5044957;28;20112;-69
2023/06/17 01:03:22;;;;;;;6.13;4.53;;;;;;;16.42;53.09;101432.59;5045242;28;20104;-70
2023/06/17 01:05:49;;;;;;;5.75;4.95;;;;;;;16.35;53.97;101438.50;5019512;28;20028;-71
2023/06/17 01:08:28;;;;;;;5.78;5.07;;;;;;;16.33;53.46;101438.59;5043532;28;20040;-70
2023/06/17 01:11:08;;;;;;;7.20;4.97;;;;;;;16.36;53.26;101442.91;5036681;28;20025;-70
2023/06/17 01:13:35;;;;;;;6.32;5.72;;;;;;;16.15;53.28;101437.13;5039425;28;20064;-70
2023/06/17 01:16:02;;;;;;;6.78;5.75;;;;;;;15.98;53.59;101431.97;5042192;28;20036;-70
2023/06/17 01:18:29;;;;;;;8.73;6.45;;;;;;;15.74;54.19;101437.94;5039909;28;20510;-70
2023/06/17 01:20:56;;;;;;;7.05;6.05;;;;;;;15.74;54.35;101427.19;5041662;28;20021;-70
2023/06/17 01:23:31;;;;;;;7.70;6.40;;;;;;;15.62;54.85;101433.28;5041430;28;20029;-71
2023/06/17 01:25:57;;;;;;;6.47;5.88;;;;;;;15.62;54.93;101430.63;5044925;28;20499;-70
2023/06/17 01:28:24;;;;;;;6.80;6.10;;;;;;;15.77;54.88;101427.00;5043891;28;20351;-69
2023/06/17 01:30:54;;;;;;;7.65;6.32;;;;;;;15.77;54.56;101424.31;5043660;28;20071;-70
2023/06/17 01:33:21;;;;;;;8.30;6.50;;;;;;;15.75;54.82;101418.19;5042478;28;20025;-69
2023/06/17 01:36:10;;;;;;;7.43;6.10;;;;;;;15.85;54.94;101422.00;5036520;28;20064;-69
2023/06/17 01:38:57;;;;;;;8.55;6.10;;;;;;;15.78;54.42;101425.19;5038935;28;20226;-70
2023/06/17 01:41:46;;;;;;;7.38;6.35;;;;;;;15.49;55.70;101417.09;5044433;28;20040;-70
2023/06/17 01:44:12;;;;;;;9.25;6.70;;;;;;;15.38;55.66;101414.22;5025420;28;20040;-70
2023/06/17 01:46:38;;;;;;;7.50;6.80;;;;;;;15.33;55.02;101421.69;5041357;28;20479;-69
2023/06/17 01:49:04;;;;;;;8.55;7.68;;;;;;;15.28;55.27;101419.28;5043336;28;20033;-69
2023/06/17 01:51:30;;;;;;;9.63;7.93;;;;;;;15.32;56.13;101419.97;5042503;28;20027;-71
2023/06/17 01:53:55;;;;;;;8.98;7.72;;;;;;;15.35;55.17;101417.97;5046420;28;20498;-70
2023/06/17 01:56:21;;;;;;;9.07;7.43;;;;;;;15.47;55.66;101415.47;5043411;28;20269;-70
2023/06/17 01:58:46;;;;;;;8.18;7.13;;;;;;;15.45;55.57;101416.44;5043965;28;20021;-71
2023/06/17 02:01:12;;;;;;;11.05;7.93;;;;;;;15.54;55.35;101419.50;5043150;28;20473;-71
2023/06/17 02:03:38;;;;;;;9.98;7.50;;;;;;;15.56;55.86;101414.91;5042552;28;20465;-69
2023/06/17 02:06:04;;;;;;;7.32;6.63;;;;;;;15.43;56.75;101407.63;5043680;28;20571;-70
2023/06/17 02:08:29;;;;;;;6.80;5.97;;;;;;;15.42;57.36;101418.44;5043688;28;20029;-70
2023/06/17 02:10:55;;;;;;;6.75;6.05;;;;;;;15.43;56.51;101414.81;5039599;28;20040;-70
2023/06/17 02:13:20;;;;;;;8.20;6.97;;;;;;;15.37;57.57;101413.34;5044531;28;20396;-70
2023/06/17 02:15:45;;;;;;;8.20;7.05;;;;;;;15.37;57.52;101418.72;5042161;28;20021;-71
2023/06/17 02:18:12;;;;;;;8.57;7.57;;;;;;;15.37;57.64;101401.78;5024163;28;20803;-70
2023/06/17 02:20:38;;;;;;;9.55;8.20;;;;;;;15.37;56.73;101407.13;5042990;28;20537;-70
2023/06/17 02:23:03;;;;;;;9.40;7.75;;;;;;;15.35;56.99;101409.91;5042289;28;20064;-70
2023/06/17 02:25:28;;;;;;;8.23;7.40;;;;;;;15.34;56.76;101408.22;5042642;28;20111;-71
2023/06/17 02:27:54;;;;;;;8.13;7.20;;;;;;;15.27;57.52;101401.47;5038061;28;20496;-70
2023/06/17 02:30:19;;;;;;;7.85;7.15;;;;;;;15.23;57.36;101408.00;5042053;28;20063;-70
2023/06/17 02:32:45;;;;;;;9.00;6.97;;;;;;;15.14;57.98;101413.94;5042579;28;20028;-70
2023/06/17 02:35:10;;;;;;;8.05;7.35;;;;;;;15.06;58.51;101411.69;5042551;28;20430;-70
2023/06/17 02:37:37;;;;;;;8.45;7.53;;;;;;;15.08;58.22;101408.91;5042407;28;20029;-70
2023/06/17 02:40:08;;;;;;;8.50;7.10;;;;;;;15.03;59.35;101408.34;5042085;28;20249;-70
2023/06/17 02:42:37;;;;;;;10.95;7.70;;;;;;;14.82;60.03;101400.63;5043290;28;20032;-70
2023/06/17 02:45:03;;;;;;;8.48;7.68;;;;;;;14.85;59.60;101397.78;5038825;28;20415;-70
2023/06/17 02:47:29;;;;;;;9.23;8.18;;;;;;;14.84;59.42;101393.38;5042921;28;20029;-69
2023/06/17 02:49:54;;;;;;;8.65;7.25;;;;;;;14.83;59.90;101394.31;5042586;28;20392;-69
2023/06/17 02:52:21;;;;;;;8.45;7.60;;;;;;;14.82;59.90;101400.63;5043734;28;20032;-70
2023/06/17 02:54:46;;;;;;;9.15;7.47;;;;;;;14.83;60.44;101402.34;5043069;28;20523;-70
2023/06/17 02:57:11;;;;;;;9.68;7.72;;;;;;;14.79;60.56;101398.13;5042865;28;20028;-70
2023/06/17 02:59:37;;;;;;;9.63;7.63;;;;;;;14.72;60.83;101399.47;5039845;28;20524;-69
2023/06/17 03:02:03;;;;;;;9.93;7.65;;;;;;;14.58;61.02;101396.72;5041731;28;20045;-70
2023/06/17 03:04:34;;;;;;;8.35;7.63;;;;;;;14.59;61.13;101393.09;5042064;28;20049;-71
2023/06/17 03:07:03;;;;;;;9.52;8.10;;;;;;;14.37;61.75;101394.31;5041557;28;20075;-70
2023/06/17 03:09:29;;;;;;;8.80;7.90;;;;;;;14.49;61.75;101392.78;5041209;28;20028;-70
2023/06/17 03:11:54;;;;;;;9.27;7.88;;;;;;;14.42;62.06;101381.53;5041711;28;20040;-70
2023/06/17 03:14:20;;;;;;;8.82;7.78;;;;;;;14.46;62.49;101384.88;5040099;28;20028;-70
2023/06/17 03:16:46;;;;;;;9.00;8.10;;;;;;;14.33;63.18;101387.41;5039291;28;20033;-70
2023/06/17 03:19:11;;;;;;;8.88;7.97;;;;;;;14.15;63.31;101386.66;5039476;28;20495;-70
2023/06/17 03:21:40;;;;;;;9.48;8.57;;;;;;;14.15;63.23;101388.47;5024802;28;20406;-70
2023/06/17 03:24:06;;;;;;;9.52;8.43;;;;;;;14.10;63.70;101383.38;5041838;28;20049;-70
2023/06/17 03:26:32;;;;;;;9.95;9.00;;;;;;;14.10;63.79;101395.91;5041831;28;20067;-70
2023/06/17 03:28:57;;;;;;;11.63;8.65;;;;;;;14.13;63.57;101382.38;5041640;28;20052;-69
2023/06/17 03:31:23;;;;;;;10.30;8.70;;;;;;;14.20;64.56;101386.38;5042535;28;20422;-70
2023/06/17 03:33:51;;;;;;;8.82;8.00;;;;;;;14.24;64.18;101381.72;5039292;28;20176;-70
2023/06/17 03:36:28;;;;;;;9.60;8.60;;;;;;;14.20;64.67;101381.03;5042049;28;20542;-69
2023/06/17 03:38:53;;;;;;;10.25;9.25;;;;;;;14.18;64.56;101388.31;5041156;28;20020;-69
2023/06/17 03:41:19;;;;;;;10.05;9.05;;;;;;;14.16;64.63;101382.16;5042059;28;20570;-70
2023/06/17 03:43:44;;;;;;;13.02;9.80;;;;;;;14.02;65.44;101382.97;5038807;28;20037;-69
2023/06/17 03:46:10;;;;;;;10.70;9.70;;;;;;;14.06;66.32;101386.31;5036247;28;20059;-70
2023/06/17 03:48:35;;;;;;;11.77;9.63;;;;;;;13.97;66.54;101381.50;5041095;28;20373;-70
2023/06/17 03:51:02;;;;;;;11.23;10.02;;;;;;;13.99;67.13;101384.94;5040865;28;20032;-70
2023/06/17 03:53:27;;;;;;;12.15;10.85;;;;;;;13.96;66.71;101388.63;5021886;28;20017;-70
2023/06/17 03:55:53;;;;;;;12.70;11.40;;;;;;;14.02;66.54;101387.44;5039788;28;20025;-71
2023/06/17 03:58:18;;;;;;;12.90;11.60;;;;;;;14.05;66.29;101374.75;5039849;28;20033;-70
2023/06/17 04:00:43;;;;;;;13.90;11.55;;;;;;;14.18;65.68;101382.94;5041354;28;20029;-70
2023/06/17 04:03:11;;;;;;;13.27;11.15;;;;;;;14.09;65.78;101379.00;5041186;28;20032;-70
2023/06/17 04:05:37;;;;;;;12.23;10.38;;;;;;;14.15;66.17;101381.31;5040549;28;20055;-70
2023/06/17 04:08:06;;;;;;;12.02;10.23;;;;;;;14.30;65.73;101389.41;5041731;28;20041;-70
2023/06/17 04:10:32;;;;;;;10.57;9.48;;;;;;;14.37;65.87;101385.41;5042746;28;20410;-70
2023/06/17 04:12:58;;;;;;;13.27;10.82;;;;;;;14.36;64.95;101384.56;5040837;28;20184;-70
2023/06/17 04:15:24;;;;;;;11.05;9.85;;;;;;;14.43;65.60;101377.91;5040762;28;20036;-70
2023/06/17 04:17:49;;;;;;;11.45;10.35;;;;;;;14.44;65.61;101376.94;5041048;28;20078;-70
2023/06/17 04:20:14;;;;;;;13.73;9.93;;;;;;;14.47;65.35;101378.59;5041642;28;20051;-70
2023/06/17 04:22:41;;;;;;;11.50;10.00;;;;;;;14.60;65.43;101382.28;5042377;28;20029;-70
2023/06/17 04:25:09;;;;;;;12.35;10.88;;;;;;;14.56;65.47;101387.94;5039817;28;20479;-69
2023/06/17 04:27:36;;;;;;;13.13;10.90;;;;;;;14.50;65.46;101383.78;5028426;28;20037;-70
2023/06/17 04:30:03;;;;;;;12.80;11.00;;;;;;;14.68;64.94;101376.50;5044787;28;20087;-70
2023/06/17 04:32:34;;;;;;;12.70;11.40;;;;;;;14.72;65.56;101380.72;5042885;28;20518;-71
2023/06/17 04:35:03;;;;;;;12.13;10.88;;;;;;;14.83;65.02;101380.06;5040706;28;20240;-71
2023/06/17 04:37:32;;;;;;;12.30;11.20;;;;;;;14.80;64.77;101383.78;5045477;28;20075;-71
2023/06/17 04:39:58;;;;;;;17.02;12.73;;;;;;;14.80;65.01;101386.47;5045744;28;20044;-71
2023/06/17 04:42:24;;;;;;;14.48;12.57;;;;;;;14.72;65.26;101378.03;5027215;28;20127;-71
2023/06/17 04:44:49;;;;;;;13.70;12.30;;;;;;;14.79;65.12;101386.56;5033596;28;20204;-71
2023/06/17 04:47:16;;;;;;;15.07;13.52;;;;;;;14.84;64.49;101381.78;5045921;28;20029;-71
2023/06/17 04:49:44;;;;;;;15.35;13.75;;;;;;;14.95;64.22;101395.41;5045663;28;20495;-71
2023/06/17 04:52:10;;;;;;;15.60;14.00;;;;;;;15.01;63.86;101395.03;5044751;28;20321;-71
2023/06/17 04:54:36;;;;;;;16.42;14.73;;;;;;;15.03;63.55;101390.44;5043836;28;20110;-72
2023/06/17 04:57:02;;;;;;;16.25;14.65;;;;;;;15.14;64.65;101392.47;5043717;28;20029;-72
2023/06/17 04:59:28;;;;;;;15.93;14.43;;;;;;;15.23;64.48;101388.38;5045614;28;20013;-72
2023/06/17 05:01:53;;;;;;;17.10;15.32;;;;;;;15.25;63.98;101389.13;5043281;28;20036;-71
2023/06/17 05:04:19;;;;;;;17.02;15.25;;;;;;;15.28;63.82;101389.78;5026598;28;20347;-71
2023/06/17 05:06:45;;;;;;;17.02;15.23;;;;;;;15.40;63.92;101398.91;5038322;28;20096;-71
2023/06/17 05:09:10;;;;;;;17.95;16.15;;;;;;;15.55;63.21;101397.06;5043697;28;20396;-71
2023/06/17 05:11:38;;;;;;;18.00;16.17;;;;;;;15.54;63.74;101398.88;5021719;28;20104;-72
2023/06/17 05:14:04;;;;;;;18.00;16.20;;;;;;;15.66;64.01;101406.19;5038348;28;20025;-72
2023/06/17 05:16:32;;;;;;;18.10;16.27;;;;;;;15.71;63.77;101394.31;5043906;28;20515;-72
2023/06/17 05:18:57;;;;;;;18.48;16.67;;;;;;;15.74;63.16;101389.63;5034936;28;20122;-73
2023/06/17 05:21:23;;;;;;;17.08;15.48;;;;;;;15.92;63.38;101403.66;5023713;28;20107;-73
2023/06/17 05:23:50;;;;;;;18.60;16.58;;;;;;;16.00;63.84;101403.19;5044240;28;20383;-72
2023/06/17 05:26:15;;;;;;;19.25;17.33;;;;;;;16.12;64.14;101395.19;5047387;28;20025;-72
2023/06/17 05:28:40;;;;;;;18.88;16.98;;;;;;;16.19;63.65;101401.03;5043157;28;20376;-72
2023/06/17 05:31:06;;;;;;;18.80;17.00;;;;;;;16.33;63.90;101402.81;5044162;28;20045;-72
2023/06/17 05:33:31;;;;;;;18.85;17.05;;;;;;;16.42;63.60;101392.31;5040401;28;20505;-72
2023/06/17 05:36:02;;;;;;;18.23;16.42;;;;;;;16.55;64.29;101399.53;5026123;28;20171;-72
2023/06/17 05:38:28;;;;;;;19.00;16.35;;;;;;;16.63;64.26;101397.19;5033622;28;20072;-73
2023/06/17 05:40:53;;;;;;;18.55;16.80;;;;;;;16.77;64.45;101394.50;5038490;28;20448;-72
2023/06/17 05:43:19;;;;;;;18.08;16.33;;;;;;;16.84;63.98;101395.78;5043590;28;20140;-72
2023/06/17 05:45:45;;;;;;;19.13;17.10;;;;;;;17.00;65.10;101400.97;5043993;28;20025;-72
2023/06/17 05:48:10;;;;;;;19.27;17.38;;;;;;;17.00;64.67;101397.41;5044938;28;20463;-72
2023/06/17 05:50:35;;;;;;;17.83;16.13;;;;;;;17.12;64.69;101392.06;5044057;28;20028;-72
2023/06/17 05:53:01;;;;;;;18.73;16.85;;;;;;;17.24;65.16;101394.88;5034786;28;20064;-72
2023/06/17 05:55:26;;;;;;;18.73;16.85;;;;;;;17.39;65.97;101399.19;5044162;28;20029;-72
2023/06/17 05:57:52;;;;;;;18.33;16.52;;;;;;;17.54;65.61;101402.59;5043314;28;20441;-72
2023/06/17 06:00:22;;;;;;;18.58;16.88;;;;;;;17.73;65.18;101403.00;5037983;28;20328;-71
2023/06/17 06:02:47;;;;;;;18.08;16.40;;;;;;;17.82;64.86;101396.97;5037508;28;20056;-72
2023/06/17 06:05:13;;;;;;;18.75;16.85;;;;;;;18.02;64.33;101397.38;5038473;28;20108;-72
2023/06/17 06:07:40;;;;;;;16.88;15.32;;;;;;;18.31;63.01;101396.06;5042831;28;20033;-72
2023/06/17 06:10:07;;;;;;;15.90;14.20;;;;;;;18.42;62.73;101396.09;5042408;28;20499;-72
2023/06/17 06:12:32;;;;;;;14.48;13.07;;;;;;;18.66;61.66;101400.63;5009575;28;20275;-72
2023/06/17 06:14:57;;;;;;;14.65;13.15;;;;;;;18.78;60.00;101397.03;5041271;28;20113;-72
2023/06/17 06:17:24;;;;;;;13.90;12.55;;;;;;;19.09;60.39;101405.44;5043453;28;20036;-71
2023/06/17 06:19:50;;;;;;;13.68;12.40;;;;;;;19.25;58.43;101400.56;5043772;28;20119;-72
2023/06/17 06:22:16;;;;;;;13.45;11.98;;;;;;;19.53;57.44;101395.69;5037558;28;20025;-71
2023/06/17 06:24:41;;;;;;;14.38;12.80;;;;;;;19.70;56.75;101386.28;5025017;28;20091;-72
2023/06/17 06:27:07;;;;;;;12.60;11.40;;;;;;;19.94;56.08;101386.09;5041555;28;20029;-71
2023/06/17 06:29:32;;;;;;;13.32;11.73;;;;;;;20.09;55.74;101382.16;5042082;28;20550;-72
2023/06/17 06:31:57;;;;;;;12.70;11.23;;;;;;;20.37;54.11;101389.69;5043998;28;20049;-71
2023/06/17 06:34:23;;;;;;;12.13;10.90;;;;;;;20.53;54.73;101393.88;5043423;28;20037;-71
2023/06/17 06:36:48;;;;;;;12.10;10.68;;;;;;;20.69;53.89;101391.56;5041514;28;20051;-71
2023/06/17 06:39:13;;;;;;;11.48;10.27;;;;;;;20.81;53.53;101384.25;5024811;28;20052;-71
2023/06/17 06:41:39;;;;;;;10.95;9.85;;;;;;;21.06;52.25;101391.09;5043031;28;20025;-71
2023/06/17 06:44:04;;;;;;;11.55;9.65;;;;;;;21.29;51.09;101381.84;5034450;28;20490;-71
2023/06/17 06:46:31;;;;;;;10.50;8.98;;;;;;;21.43;49.62;101380.66;5043484;28;20020;-71
2023/06/17 06:48:56;;;;;;;10.50;8.70;;;;;;;21.66;48.31;101392.19;5042744;28;20047;-71
2023/06/17 06:51:22;;;;;;;9.18;8.20;;;;;;;21.82;47.73;101394.34;5037367;28;20480;-72
2023/06/17 06:53:48;;;;;;;10.15;8.43;;;;;;;22.05;46.52;101395.84;5037936;28;20196;-72
2023/06/17 06:56:14;;;;;;;9.43;8.57;;;;;;;22.02;45.58;101390.72;5042482;28;20040;-72
2023/06/17 06:58:39;;;;;;;9.52;8.63;;;;;;;22.09;46.15;101397.31;5040921;28;20053;-71
2023/06/17 07:01:05;;;;;;;11.82;9.38;;;;;;;22.23;46.41;101397.91;5042898;28;20095;-72
2023/06/17 07:03:33;;;;;;;11.15;8.45;;;;;;;22.47;46.07;101401.09;5041724;28;20040;-72
2023/06/17 07:05:58;;;;;;;8.70;7.85;;;;;;;22.61;45.21;101394.38;5041563;28;20052;-71
2023/06/17 07:08:24;;;;;;;8.02;7.32;;;;;;;22.83;44.11;101390.53;5042663;28;20068;-72
2023/06/17 07:10:50;;;;;;;8.38;7.50;;;;;;;22.95;44.02;101397.56;5041918;28;20114;-71
2023/06/17 07:13:17;;;;;;;8.38;7.57;;;;;;;22.99;42.48;101400.81;5042333;28;20033;-72
2023/06/17 07:15:43;;;;;;;7.72;6.90;;;;;;;23.10;42.35;101404.22;5041193;28;20025;-72
2023/06/17 07:18:09;;;;;;;8.57;7.65;;;;;;;23.28;42.18;101404.34;5041620;28;20288;-71
2023/06/17 07:20:35;;;;;;;7.47;6.78;;;;;;;23.58;42.61;101391.53;5034977;28;20029;-71
2023/06/17 07:23:03;;;;;;;6.40;5.80;;;;;;;23.86;40.38;101395.97;5036497;28;20391;-71
2023/06/17 07:25:29;;;;;;;6.40;5.85;;;;;;;24.03;40.73;101393.44;5043149;28;20347;-72
2023/06/17 07:27:59;;;;;;;6.35;5.75;;;;;;;24.15;39.09;101394.97;5041532;28;20427;-72
2023/06/17 07:30:27;;;;;;;7.55;6.50;;;;;;;24.34;39.17;101394.84;5041475;28;20052;-72
2023/06/17 07:32:52;;;;;;;6.70;5.43;;;;;;;24.85;38.43;101397.88;5042152;28;20259;-73
2023/06/17 07:35:17;;;;;;;6.47;5.60;;;;;;;25.26;36.84;101392.78;5041096;28;20534;-72
2023/06/17 07:37:43;;;;;;;5.63;5.07;;;;;;;25.81;34.85;101389.69;5038902;28;20478;-72
2023/06/17 07:40:10;;;;;;;6.30;5.68;;;;;;;26.20;35.63;101389.97;5040534;28;20114;-72
2023/06/17 07:42:37;;;;;;;5.57;5.10;;;;;;;26.48;33.81;101397.91;5015511;28;20048;-71
2023/06/17 07:45:04;;;;;;;6.50;5.03;;;;;;;26.94;33.32;101398.28;5042810;28;20079;-70
2023/06/17 07:47:29;;;;;;;6.05;5.47;;;;;;;27.33;33.43;101398.41;5042108;28;20098;-70
2023/06/17 07:49:55;;;;;;;7.18;6.38;;;;;;;27.64;32.65;101384.84;5036777;28;20080;-70
2023/06/17 07:52:20;;;;;;;6.05;5.55;;;;;;;28.17;30.04;101375.00;5040567;28;20039;-71
2023/06/17 07:54:47;;;;;;;6.82;5.15;;;;;;;28.83;29.01;101385.53;5041726;28;20101;-71
2023/06/17 07:57:13;;;;;;;6.53;4.40;;;;;;;29.11;27.28;101389.41;5041247;28;20037;-71
2023/06/17 07:59:40;;;;;;;4.88;4.47;;;;;;;29.09;26.95;101385.97;5041153;28;20499;-71
2023/06/17 08:02:06;;;;;;;4.82;4.30;;;;;;;29.82;26.51;101381.59;5044202;28;20024;-71
2023/06/17 08:04:31;;;;;;;6.95;4.70;;;;;;;30.10;26.02;101383.59;5045995;28;20100;-71
2023/06/17 08:06:57;;;;;;;4.50;4.10;;;;;;;30.50;24.69;101377.53;5046880;28;20020;-71
2023/06/17 08:09:22;;;;;;;5.30;3.97;;;;;;;30.85;25.02;101387.81;5045977;28;20376;-73
2023/06/17 08:11:47;;;;;;;6.75;4.30;;;;;;;31.36;25.28;101380.22;5046379;28;20143;-73
2023/06/17 08:14:13;;;;;;;4.93;4.53;;;;;;;31.82;23.74;101384.28;5043747;28;20133;-71
2023/06/17 08:16:38;;;;;;;4.45;4.07;;;;;;;32.05;23.43;101381.22;5043750;28;20383;-71
2023/06/17 08:19:04;;;;;;;5.07;4.20;;;;;;;32.27;22.52;101376.38;5042726;28;20406;-69
2023/06/17 08:21:30;;;;;;;4.32;3.92;;;;;;;32.22;22.68;101377.00;5040946;28;20029;-70
2023/06/17 08:23:55;;;;;;;4.53;4.13;;;;;;;32.65;22.12;101380.31;5044025;28;20438;-71
2023/06/17 08:26:20;;;;;;;7.25;4.35;;;;;;;33.03;22.77;101374.22;5026650;28;20153;-69
2023/06/17 08:28:45;;;;;;;6.47;4.18;;;;;;;33.05;23.06;101373.97;5042862;28;20036;-69
2023/06/17 08:31:11;;;;;;;6.55;4.35;;;;;;;33.10;23.70;101368.66;5039547;28;20044;-69
2023/06/17 08:33:37;;;;;;;7.32;4.65;;;;;;;33.29;21.94;101376.06;5041257;28;20038;-69
2023/06/17 08:36:02;;;;;;;6.18;4.13;;;;;;;33.43;21.39;101376.88;5042967;28;20109;-69
2023/06/17 08:38:27;;;;;;;4.90;3.80;;;;;;;33.24;22.34;101372.28;5045852;28;20020;-69
2023/06/17 08:40:53;;;;;;;4.88;3.90;;;;;;;33.80;19.94;101371.69;5045042;28;20024;-69
2023/06/17 08:43:20;;;;;;;4.95;4.55;;;;;;;34.59;20.16;101368.53;5045946;28;20021;-70
2023/06/17 08:45:48;;;;;;;7.47;4.25;;;;;;;35.04;20.05;101367.56;5027446;28;20023;-70
2023/06/17 08:48:14;;;;;;;5.22;4.80;;;;;;;35.75;19.69;101377.25;5045140;28;20020;-70
2023/06/17 08:50:41;;;;;;;6.85;4.53;;;;;;;35.79;19.99;101378.47;5040501;28;20025;-70
2023/06/17 08:53:07;;;;;;;5.25;4.75;;;;;;;36.23;19.92;101377.25;5044807;28;20032;-69
2023/06/17 08:55:32;;;;;;;5.32;4.47;;;;;;;36.61;19.52;101374.13;5044980;28;20039;-70
2023/06/17 08:57:58;;;;;;;5.82;4.60;;;;;;;36.61;19.63;101374.13;5045832;28;20108;-70
2023/06/17 09:00:23;;;;;;;5.85;4.90;;;;;;;36.72;19.27;101368.84;5045176;28;20337;-69
2023/06/17 09:02:50;;;;;;;6.07;4.75;;;;;;;35.81;18.83;101379.91;5044241;28;20481;-69
2023/06/17 09:05:16;;;;;;;4.93;4.53;;;;;;;35.93;19.61;101377.22;5044870;28;20104;-68
2023/06/17 09:07:42;;;;;;;5.22;4.82;;;;;;;35.97;19.30;101378.47;5038810;28;20023;-68
2023/06/17 09:10:09;;;;;;;5.13;4.63;;;;;;;36.60;18.40;101371.59;5044630;28;20083;-68
2023/06/17 09:12:38;;;;;;;7.85;6.00;;;;;;;36.41;19.02;101371.66;5043461;28;20102;-68
2023/06/17 09:15:08;;;;;;;10.82;9.82;;;;;;;36.30;17.30;101372.47;5044802;28;20558;-69
2023/06/17 09:17:36;;;;;;;4.50;4.10;;;;;;;35.75;18.17;101378.09;5044872;28;20033;-68
2023/06/17 09:20:13;;;;;;;5.07;4.18;;;;;;;36.72;18.76;101374.41;5043953;28;20033;-70
2023/06/17 09:22:40;;;;;;;6.07;4.47;;;;;;;36.52;17.20;101363.63;5044708;28;20537;-69
2023/06/17 09:25:11;;;;;;;4.32;3.90;;;;;;;37.35;16.57;101365.41;5042028;28;20592;-69
2023/06/17 09:27:37;;;;;;;4.75;4.35;;;;;;;37.61;16.01;101376.00;5036455;28;20502;-69
2023/06/17 09:30:06;;;;;;;5.53;4.03;;;;;;;38.13;16.76;101377.94;5043827;28;20028;-69
2023/06/17 09:32:42;;;;;;;6.10;4.57;;;;;;;37.80;16.68;101376.69;5044763;28;20033;-69
2023/06/17 09:35:14;;;;;;;4.03;3.63;;;;;;;37.98;16.09;101375.69;5044676;28;20137;-69
2023/06/17 09:37:41;;;;;;;7.07;4.00;;;;;;;38.06;15.29;101377.22;5043917;28;20041;-69
2023/06/17 09:40:07;;;;;;;4.75;4.13;;;;;;;38.55;15.33;101374.84;5044828;28;20028;-68
2023/06/17 09:42:33;;;;;;;5.07;4.10;;;;;;;38.92;16.11;101372.44;5041930;28;20031;-69
2023/06/17 09:45:03;;;;;;;5.50;3.85;;;;;;;39.42;14.63;101368.72;5044028;28;20029;-68
2023/06/17 09:47:37;;;;;;;4.88;3.88;;;;;;;39.68;14.89;101369.94;5036540;28;20577;-69
2023/06/17 09:50:04;;;;;;;4.60;4.20;;;;;;;40.30;15.28;101382.63;5043803;28;20078;-70
2023/06/17 09:52:32;;;;;;;4.60;3.83;;;;;;;40.72;13.85;101367.97;5044458;28;20037;-70
2023/06/17 09:54:58;;;;;;;4.03;3.72;;;;;;;40.95;13.84;101366.78;5044573;28;20056;-70
2023/06/17 09:57:26;;;;;;;4.93;3.60;;;;;;;40.73;14.14;101373.31;5043878;28;20040;-70
2023/06/17 09:59:55;;;;;;;4.60;4.20;;;;;;;40.61;13.40;101369.03;5043214;28;20055;-69
2023/06/17 10:02:20;;;;;;;4.32;3.92;;;;;;;40.78;13.85;101361.34;5041506;28;20119;-70
2023/06/17 10:04:46;;;;;;;6.90;3.97;;;;;;;41.21;13.53;101365.84;5037002;28;20021;-69
2023/06/17 10:07:13;;;;;;;5.47;4.30;;;;;;;41.55;12.54;101366.34;5043474;28;20094;-69
2023/06/17 10:09:40;;;;;;;4.75;4.07;;;;;;;41.30;13.72;101368.97;5043806;28;20116;-70
2023/06/17 10:12:06;;;;;;;4.20;3.90;;;;;;;40.81;13.16;101360.81;5043625;28;20029;-70
2023/06/17 10:14:33;;;;;;;4.20;3.90;;;;;;;40.62;13.35;101363.16;5042425;28;20155;-68
2023/06/17 10:17:05;;;;;;;4.20;3.85;;;;;;;40.49;13.94;101350.47;5025818;28;20029;-69
2023/06/17 10:19:36;;;;;;;5.67;3.93;;;;;;;41.17;14.09;101352.69;5041187;28;20131;-69
2023/06/17 10:22:06;;;;;;;5.03;4.07;;;;;;;41.00;13.81;101353.72;5043255;28;20043;-68
2023/06/17 10:24:32;;;;;;;4.20;3.80;;;;;;;41.80;13.03;101350.78;5025648;28;20060;-70
2023/06/17 10:27:03;;;;;;;5.30;4.03;;;;;;;42.56;14.37;101346.47;5044025;28;20032;-68
2023/06/17 10:29:28;;;;;;;6.55;4.63;;;;;;;42.88;12.27;101347.03;5043132;28;20107;-69
2023/06/17 10:31:53;;;;;;;5.22;4.72;;;;;;;42.75;12.37;101347.63;5035553;28;20053;-70
2023/06/17 10:34:22;;;;;;;5.32;4.30;;;;;;;42.30;11.95;101346.47;5042915;28;20029;-69
2023/06/17 10:36:51;;;;;;;4.80;4.30;;;;;;;42.81;12.92;101343.72;5041722;28;20103;-69
2023/06/17 10:39:17;;;;;;;4.95;4.55;;;;;;;42.60;11.85;101336.38;5023529;28;20094;-70
2023/06/17 10:41:42;;;;;;;6.90;4.72;;;;;;;42.28;12.15;101334.72;5042579;28;20024;-70
2023/06/17 10:44:20;;;;;;;4.85;4.35;;;;;;;42.69;12.07;101345.97;5042006;28;20021;-70
2023/06/17 10:46:49;;;;;;;6.65;4.80;;;;;;;42.41;12.58;101342.56;5042787;28;20118;-69
2023/06/17 10:49:15;;;;;;;5.30;4.55;;;;;;;42.77;12.01;101329.44;5042656;28;20052;-70
2023/06/17 10:51:48;;;;;;;5.05;4.43;;;;;;;42.84;12.15;101336.69;5029991;28;20013;-70
2023/06/17 10:54:13;;;;;;;5.13;4.72;;;;;;;42.93;12.67;101337.78;5040658;28;20033;-69
2023/06/17 10:56:51;;;;;;;4.95;4.57;;;;;;;42.50;12.45;101326.06;5042579;28;20028;-70
2023/06/17 10:59:26;;;;;;;5.22;4.70;;;;;;;42.42;13.21;101326.63;5038286;28;20040;-69
2023/06/17 11:02:06;;;;;;;6.30;5.65;;;;;;;42.57;12.35;101328.59;5042888;28;20064;-67
2023/06/17 11:04:32;;;;;;;6.60;5.93;;;;;;;42.23;12.12;101320.75;5042519;28;20078;-69
2023/06/17 11:06:59;;;;;;;6.80;6.07;;;;;;;41.78;12.91;101328.69;5042595;28;20029;-68
2023/06/17 11:09:25;;;;;;;6.50;5.80;;;;;;;41.16;13.84;101317.50;5026637;28;20321;-69
2023/06/17 11:11:51;;;;;;;6.55;5.85;;;;;;;40.89;13.18;101324.03;5042315;28;20027;-68
2023/06/17 11:14:22;;;;;;;6.90;6.18;;;;;;;40.33;12.82;101323.53;5042224;28;20448;-69
2023/06/17 11:16:51;;;;;;;7.13;6.53;;;;;;;41.44;13.17;101321.88;5042364;28;20082;-70
2023/06/17 11:19:16;;;;;;;7.88;6.22;;;;;;;41.87;12.86;101309.47;5042062;28;20086;-70